sensor_id;sensor_type;location;lat;lon;timestamp;pressure;altitude;pressure_sealevel;temperature;humidity
53868;BME280;41577;47.470;19.080;2023-05-22T00:00:12;100110.69;;;18.44;76.78
53868;BME280;41577;47.470;19.080;2023-05-22T00:00:25;100098.13;;;18.37;76.75
53868;BME280;41577;47.470;19.080;2023-05-22T00:00:37;100115.00;;;18.45;76.50
53868;BME280;41577;47.470;19.080;2023-05-22T00:00:51;100111.72;;;18.43;76.73
53868;BME280;41577;47.470;19.080;2023-05-22T00:01:06;100107.16;;;18.43;76.92
53868;BME280;41577;47.470;19.080;2023-05-22T00:01:19;100114.44;;;18.43;76.78
53868;BME280;41577;47.470;19.080;2023-05-22T00:01:32;100108.22;;;18.42;76.73
53868;BME280;41577;47.470;19.080;2023-05-22T00:01:45;100103.31;;;18.39;76.80
53868;BME280;41577;47.470;19.080;2023-05-22T00:02:04;100102.50;;;18.38;76.92
53868;BME280;41577;47.470;19.080;2023-05-22T00:02:16;100114.94;;;18.39;76.66
53868;BME280;41577;47.470;19.080;2023-05-22T00:02:29;100104.13;;;18.39;76.88
53868;BME280;41577;47.470;19.080;2023-05-22T00:02:43;100103.22;;;18.34;76.78
53868;BME280;41577;47.470;19.080;2023-05-22T00:02:56;100110.84;;;18.37;76.88
53868;BME280;41577;47.470;19.080;2023-05-22T00:03:09;100110.84;;;18.37;76.93
53868;BME280;41577;47.470;19.080;2023-05-22T00:03:22;100115.16;;;18.38;77.08
53868;BME280;41577;47.470;19.080;2023-05-22T00:03:37;100112.16;;;18.34;77.08
53868;BME280;41577;47.470;19.080;2023-05-22T00:03:50;100113.53;;;18.37;77.32
53868;BME280;41577;47.470;19.080;2023-05-22T00:04:03;100121.66;;;18.37;77.15
53868;BME280;41577;47.470;19.080;2023-05-22T00:04:20;100122.72;;;18.36;77.41
53868;BME280;41577;47.470;19.080;2023-05-22T00:04:33;100114.84;;;18.34;77.51
53868;BME280;41577;47.470;19.080;2023-05-22T00:04:45;100109.59;;;18.28;77.11
53868;BME280;41577;47.470;19.080;2023-05-22T00:04:58;100113.94;;;18.29;77.48
53868;BME280;41577;47.470;19.080;2023-05-22T00:05:12;100116.97;;;18.32;77.54
53868;BME280;41577;47.470;19.080;2023-05-22T00:05:26;100108.22;;;18.25;77.41
53868;BME280;41577;47.470;19.080;2023-05-22T00:05:40;100118.03;;;18.31;77.42
53868;BME280;41577;47.470;19.080;2023-05-22T00:05:53;100116.41;;;18.30;77.11
53868;BME280;41577;47.470;19.080;2023-05-22T00:06:06;100117.72;;;18.28;77.16
53868;BME280;41577;47.470;19.080;2023-05-22T00:06:21;100116.31;;;18.25;77.23
53868;BME280;41577;47.470;19.080;2023-05-22T00:06:40;100116.56;;;18.24;77.47
53868;BME280;41577;47.470;19.080;2023-05-22T00:06:53;100118.53;;;18.28;77.42
53868;BME280;41577;47.470;19.080;2023-05-22T00:07:05;100121.47;;;18.27;77.79
53868;BME280;41577;47.470;19.080;2023-05-22T00:07:18;100123.13;;;18.28;77.63
53868;BME280;41577;47.470;19.080;2023-05-22T00:07:31;100126.63;;;18.28;77.43
53868;BME280;41577;47.470;19.080;2023-05-22T00:07:44;100120.06;;;18.24;77.17
53868;BME280;41577;47.470;19.080;2023-05-22T00:07:58;100118.22;;;18.25;77.35
53868;BME280;41577;47.470;19.080;2023-05-22T00:08:11;100122.78;;;18.24;77.31
53868;BME280;41577;47.470;19.080;2023-05-22T00:08:27;100116.56;;;18.24;77.10
53868;BME280;41577;47.470;19.080;2023-05-22T00:08:44;100121.16;;;18.23;77.07
53868;BME280;41577;47.470;19.080;2023-05-22T00:08:56;100124.66;;;18.24;77.08
53868;BME280;41577;47.470;19.080;2023-05-22T00:09:11;100120.56;;;18.21;77.38
53868;BME280;41577;47.470;19.080;2023-05-22T00:09:24;100124.09;;;18.22;77.38
53868;BME280;41577;47.470;19.080;2023-05-22T00:09:39;100123.28;;;18.21;77.38
53868;BME280;41577;47.470;19.080;2023-05-22T00:09:52;100122.19;;;18.22;77.21
53868;BME280;41577;47.470;19.080;2023-05-22T00:10:06;100120.56;;;18.21;76.96
53868;BME280;41577;47.470;19.080;2023-05-22T00:10:18;100121.66;;;18.20;77.22
53868;BME280;41577;47.470;19.080;2023-05-22T00:10:34;100120.56;;;18.21;77.12
53868;BME280;41577;47.470;19.080;2023-05-22T00:10:47;100122.47;;;18.21;77.00
53868;BME280;41577;47.470;19.080;2023-05-22T00:11:00;100127.88;;;18.21;77.06
53868;BME280;41577;47.470;19.080;2023-05-22T00:11:14;100123.28;;;18.21;76.85
53868;BME280;41577;47.470;19.080;2023-05-22T00:11:27;100114.81;;;18.17;76.77
53868;BME280;41577;47.470;19.080;2023-05-22T00:11:40;100110.13;;;18.13;76.63
53868;BME280;41577;47.470;19.080;2023-05-22T00:11:55;100122.47;;;18.21;76.79
53868;BME280;41577;47.470;19.080;2023-05-22T00:12:08;100120.22;;;18.17;76.83
53868;BME280;41577;47.470;19.080;2023-05-22T00:12:24;100118.69;;;18.22;76.77
53868;BME280;41577;47.470;19.080;2023-05-22T00:12:37;100125.47;;;18.24;76.92
53868;BME280;41577;47.470;19.080;2023-05-22T00:12:53;100121.97;;;18.24;76.59
53868;BME280;41577;47.470;19.080;2023-05-22T00:13:05;100114.34;;;18.21;76.42
53868;BME280;41577;47.470;19.080;2023-05-22T00:13:18;100110.25;;;18.18;76.40
53868;BME280;41577;47.470;19.080;2023-05-22T00:13:35;100113.63;;;18.25;75.87
53868;BME280;41577;47.470;19.080;2023-05-22T00:13:48;100121.72;;;18.25;75.72
53868;BME280;41577;47.470;19.080;2023-05-22T00:14:01;100111.97;;;18.24;75.67
53868;BME280;41577;47.470;19.080;2023-05-22T00:14:14;100116.06;;;18.27;75.71
53868;BME280;41577;47.470;19.080;2023-05-22T00:14:27;100123.13;;;18.28;75.52
53868;BME280;41577;47.470;19.080;2023-05-22T00:14:39;100124.75;;;18.29;75.52
53868;BME280;41577;47.470;19.080;2023-05-22T00:14:55;100123.69;;;18.30;75.38
53868;BME280;41577;47.470;19.080;2023-05-22T00:15:08;100116.06;;;18.27;75.69
53868;BME280;41577;47.470;19.080;2023-05-22T00:15:25;100104.69;;;18.25;75.70
53868;BME280;41577;47.470;19.080;2023-05-22T00:15:37;100123.13;;;18.28;75.58
53868;BME280;41577;47.470;19.080;2023-05-22T00:15:50;100117.38;;;18.24;75.69
53868;BME280;41577;47.470;19.080;2023-05-22T00:16:02;100119.34;;;18.29;75.82
53868;BME280;41577;47.470;19.080;2023-05-22T00:16:15;100108.22;;;18.25;75.68
53868;BME280;41577;47.470;19.080;2023-05-22T00:16:27;100119.09;;;18.30;75.78
53868;BME280;41577;47.470;19.080;2023-05-22T00:16:43;100119.34;;;18.29;75.61
53868;BME280;41577;47.470;19.080;2023-05-22T00:16:56;100119.59;;;18.27;75.95
53868;BME280;41577;47.470;19.080;2023-05-22T00:17:08;100111.22;;;18.29;75.85
53868;BME280;41577;47.470;19.080;2023-05-22T00:17:22;100119.34;;;18.29;75.95
53868;BME280;41577;47.470;19.080;2023-05-22T00:17:34;100118.53;;;18.28;75.62
53868;BME280;41577;47.470;19.080;2023-05-22T00:17:47;100125.59;;;18.29;75.74
53868;BME280;41577;47.470;19.080;2023-05-22T00:18:00;100112.81;;;18.25;75.66
53868;BME280;41577;47.470;19.080;2023-05-22T00:18:12;100116.91;;;18.27;75.55
53868;BME280;41577;47.470;19.080;2023-05-22T00:18:25;100119.59;;;18.27;75.82
53868;BME280;41577;47.470;19.080;2023-05-22T00:18:40;100116.91;;;18.27;75.77
53868;BME280;41577;47.470;19.080;2023-05-22T00:18:53;100116.31;;;18.25;75.57
53868;BME280;41577;47.470;19.080;2023-05-22T00:19:06;100118.75;;;18.27;75.93
53868;BME280;41577;47.470;19.080;2023-05-22T00:19:19;100106.25;;;18.21;75.90
53868;BME280;41577;47.470;19.080;2023-05-22T00:19:33;100117.13;;;18.26;75.89
53868;BME280;41577;47.470;19.080;2023-05-22T00:19:45;100119.84;;;18.26;75.74
53868;BME280;41577;47.470;19.080;2023-05-22T00:19:59;100119.84;;;18.26;75.83
53868;BME280;41577;47.470;19.080;2023-05-22T00:20:14;100107.88;;;18.22;75.75
53868;BME280;41577;47.470;19.080;2023-05-22T00:20:28;100119.03;;;18.25;75.47
53868;BME280;41577;47.470;19.080;2023-05-22T00:20:41;100117.38;;;18.24;75.72
53868;BME280;41577;47.470;19.080;2023-05-22T00:20:54;100122.53;;;18.26;75.42
53868;BME280;41577;47.470;19.080;2023-05-22T00:21:06;100110.84;;;18.20;75.37
53868;BME280;41577;47.470;19.080;2023-05-22T00:21:20;100105.44;;;18.20;75.34
53868;BME280;41577;47.470;19.080;2023-05-22T00:21:32;100120.91;;;18.25;75.48
53868;BME280;41577;47.470;19.080;2023-05-22T00:21:46;100116.78;;;18.22;75.21
53868;BME280;41577;47.470;19.080;2023-05-22T00:22:01;100124.44;;;18.25;75.32
53868;BME280;41577;47.470;19.080;2023-05-22T00:22:14;100108.38;;;18.18;75.39
53868;BME280;41577;47.470;19.080;2023-05-22T00:22:26;100118.22;;;18.25;75.22
53868;BME280;41577;47.470;19.080;2023-05-22T00:22:39;100120.91;;;18.25;75.39
53868;BME280;41577;47.470;19.080;2023-05-22T00:22:52;100126.31;;;18.25;75.48
53868;BME280;41577;47.470;19.080;2023-05-22T00:23:05;100117.38;;;18.24;75.31
53868;BME280;41577;47.470;19.080;2023-05-22T00:23:21;100119.75;;;18.21;75.42
53868;BME280;41577;47.470;19.080;2023-05-22T00:23:33;100111.88;;;18.19;75.60
53868;BME280;41577;47.470;19.080;2023-05-22T00:23:46;100124.66;;;18.24;75.48
53868;BME280;41577;47.470;19.080;2023-05-22T00:23:59;100125.75;;;18.23;75.42
53868;BME280;41577;47.470;19.080;2023-05-22T00:24:11;100112.38;;;18.16;75.40
53868;BME280;41577;47.470;19.080;2023-05-22T00:24:24;100112.13;;;18.17;75.50
53868;BME280;41577;47.470;19.080;2023-05-22T00:24:36;100120.22;;;18.17;75.37
53868;BME280;41577;47.470;19.080;2023-05-22T00:24:49;100120.81;;;18.19;75.21
53868;BME280;41577;47.470;19.080;2023-05-22T00:25:02;100124.91;;;18.22;75.28
53868;BME280;41577;47.470;19.080;2023-05-22T00:25:18;100120.00;;;18.19;75.28
53868;BME280;41577;47.470;19.080;2023-05-22T00:25:30;100125.16;;;18.21;75.12
53868;BME280;41577;47.470;19.080;2023-05-22T00:25:43;100109.91;;;18.14;74.75
53868;BME280;41577;47.470;19.080;2023-05-22T00:25:55;100120.50;;;18.16;74.72
53868;BME280;41577;47.470;19.080;2023-05-22T00:26:08;100117.06;;;18.21;74.98
53868;BME280;41577;47.470;19.080;2023-05-22T00:26:22;100119.75;;;18.21;74.70
53868;BME280;41577;47.470;19.080;2023-05-22T00:26:35;100110.97;;;18.13;74.78
53868;BME280;41577;47.470;19.080;2023-05-22T00:26:48;100118.09;;;18.19;74.80
53868;BME280;41577;47.470;19.080;2023-05-22T00:27:01;100117.88;;;18.21;74.76
53868;BME280;41577;47.470;19.080;2023-05-22T00:27:13;100114.00;;;18.17;74.80
53868;BME280;41577;47.470;19.080;2023-05-22T00:27:26;100115.41;;;18.19;74.40
53868;BME280;41577;47.470;19.080;2023-05-22T00:27:39;100124.09;;;18.22;74.28
53868;BME280;41577;47.470;19.080;2023-05-22T00:27:52;100108.00;;;18.15;74.08
53868;BME280;41577;47.470;19.080;2023-05-22T00:28:04;100113.78;;;18.18;74.09
53868;BME280;41577;47.470;19.080;2023-05-22T00:28:17;100108.38;;;18.18;74.05
53868;BME280;41577;47.470;19.080;2023-05-22T00:28:30;100104.72;;;18.13;73.98
53868;BME280;41577;47.470;19.080;2023-05-22T00:28:42;100106.16;;;18.15;73.78
53868;BME280;41577;47.470;19.080;2023-05-22T00:28:56;100117.06;;;18.21;73.92
53868;BME280;41577;47.470;19.080;2023-05-22T00:29:08;100114.59;;;18.19;73.32
53868;BME280;41577;47.470;19.080;2023-05-22T00:29:21;100106.25;;;18.21;73.84
53868;BME280;41577;47.470;19.080;2023-05-22T00:29:33;100107.78;;;18.16;74.02
53868;BME280;41577;47.470;19.080;2023-05-22T00:29:46;100113.84;;;18.24;73.60
53868;BME280;41577;47.470;19.080;2023-05-22T00:30:01;100103.53;;;18.21;73.72
53868;BME280;41577;47.470;19.080;2023-05-22T00:30:14;100119.84;;;18.26;73.83
53868;BME280;41577;47.470;19.080;2023-05-22T00:30:26;100110.56;;;18.22;73.82
53868;BME280;41577;47.470;19.080;2023-05-22T00:30:38;100110.84;;;18.20;73.88
53868;BME280;41577;47.470;19.080;2023-05-22T00:30:51;100120.66;;;18.26;73.89
53868;BME280;41577;47.470;19.080;2023-05-22T00:31:04;100110.34;;;18.23;73.45
53868;BME280;41577;47.470;19.080;2023-05-22T00:31:17;100107.13;;;18.26;73.89
53868;BME280;41577;47.470;19.080;2023-05-22T00:31:29;100114.44;;;18.26;73.77
53868;BME280;41577;47.470;19.080;2023-05-22T00:31:43;100111.38;;;18.22;73.66
53868;BME280;41577;47.470;19.080;2023-05-22T00:31:55;100124.16;;;18.27;73.82
53868;BME280;41577;47.470;19.080;2023-05-22T00:32:08;100122.31;;;18.27;73.64
53868;BME280;41577;47.470;19.080;2023-05-22T00:32:20;100116.06;;;18.27;73.93
53868;BME280;41577;47.470;19.080;2023-05-22T00:32:32;100110.91;;;18.25;74.32
53868;BME280;41577;47.470;19.080;2023-05-22T00:32:45;100113.28;;;18.22;73.84
53868;BME280;41577;47.470;19.080;2023-05-22T00:32:59;100114.66;;;18.24;73.88
53868;BME280;41577;47.470;19.080;2023-05-22T00:33:12;100119.03;;;18.25;73.79
53868;BME280;41577;47.470;19.080;2023-05-22T00:33:24;100115.75;;;18.23;74.16
53868;BME280;41577;47.470;19.080;2023-05-22T00:33:37;100117.38;;;18.24;74.09
53868;BME280;41577;47.470;19.080;2023-05-22T00:33:49;100117.38;;;18.24;74.16
53868;BME280;41577;47.470;19.080;2023-05-22T00:34:02;100121.16;;;18.23;74.25
53868;BME280;41577;47.470;19.080;2023-05-22T00:34:15;100116.56;;;18.24;74.30
53868;BME280;41577;47.470;19.080;2023-05-22T00:34:28;100113.84;;;18.24;74.11
53868;BME280;41577;47.470;19.080;2023-05-22T00:34:41;100117.06;;;18.21;73.85
53868;BME280;41577;47.470;19.080;2023-05-22T00:34:54;100124.66;;;18.24;73.99
53868;BME280;41577;47.470;19.080;2023-05-22T00:35:08;100102.16;;;18.18;74.14
53868;BME280;41577;47.470;19.080;2023-05-22T00:35:22;100115.75;;;18.23;74.04
53868;BME280;41577;47.470;19.080;2023-05-22T00:35:34;100110.84;;;18.20;74.08
53868;BME280;41577;47.470;19.080;2023-05-22T00:35:47;100124.44;;;18.25;74.08
53868;BME280;41577;47.470;19.080;2023-05-22T00:35:59;100123.84;;;18.23;74.31
53868;BME280;41577;47.470;19.080;2023-05-22T00:36:12;100125.75;;;18.23;74.46
53868;BME280;41577;47.470;19.080;2023-05-22T00:36:25;100113.19;;;18.16;74.23
53868;BME280;41577;47.470;19.080;2023-05-22T00:36:38;100114.34;;;18.21;74.13
53868;BME280;41577;47.470;19.080;2023-05-22T00:36:50;100123.84;;;18.23;73.96
53868;BME280;41577;47.470;19.080;2023-05-22T00:37:02;100119.25;;;18.24;73.72
53868;BME280;41577;47.470;19.080;2023-05-22T00:37:15;100122.78;;;18.24;73.64
53868;BME280;41577;47.470;19.080;2023-05-22T00:37:27;100112.22;;;18.23;73.75
53868;BME280;41577;47.470;19.080;2023-05-22T00:37:39;100115.41;;;18.19;74.07
53868;BME280;41577;47.470;19.080;2023-05-22T00:37:52;100118.44;;;18.23;73.87
53868;BME280;41577;47.470;19.080;2023-05-22T00:38:07;100120.34;;;18.23;73.72
53868;BME280;41577;47.470;19.080;2023-05-22T00:38:28;100115.75;;;18.23;73.58
53868;BME280;41577;47.470;19.080;2023-05-22T00:38:43;100114.00;;;18.17;73.50
53868;BME280;41577;47.470;19.080;2023-05-22T00:38:55;100123.03;;;18.23;73.38
53868;BME280;41577;47.470;19.080;2023-05-22T00:39:08;100126.56;;;18.23;73.03
53868;BME280;41577;47.470;19.080;2023-05-22T00:39:23;100121.16;;;18.23;73.25
53868;BME280;41577;47.470;19.080;2023-05-22T00:39:37;100121.16;;;18.23;73.08
53868;BME280;41577;47.470;19.080;2023-05-22T00:39:50;100121.97;;;18.24;73.01
53868;BME280;41577;47.470;19.080;2023-05-22T00:40:03;100121.97;;;18.24;73.30
53868;BME280;41577;47.470;19.080;2023-05-22T00:40:15;100124.91;;;18.22;73.27
53868;BME280;41577;47.470;19.080;2023-05-22T00:40:29;100111.31;;;18.17;73.42
53868;BME280;41577;47.470;19.080;2023-05-22T00:40:41;100110.25;;;18.18;73.71
53868;BME280;41577;47.470;19.080;2023-05-22T00:40:57;100122.19;;;18.22;73.89
53868;BME280;41577;47.470;19.080;2023-05-22T00:41:10;100119.19;;;18.18;73.27
53868;BME280;41577;47.470;19.080;2023-05-22T00:41:25;100127.88;;;18.21;73.47
53868;BME280;41577;47.470;19.080;2023-05-22T00:41:38;100121.06;;;18.18;73.85
53868;BME280;41577;47.470;19.080;2023-05-22T00:41:51;100115.41;;;18.19;73.70
53868;BME280;41577;47.470;19.080;2023-05-22T00:42:04;100117.28;;;18.19;73.76
53868;BME280;41577;47.470;19.080;2023-05-22T00:42:17;100125.75;;;18.23;73.73
53868;BME280;41577;47.470;19.080;2023-05-22T00:42:31;100115.09;;;18.16;73.72
53868;BME280;41577;47.470;19.080;2023-05-22T00:42:44;100124.22;;;18.15;74.03
53868;BME280;41577;47.470;19.080;2023-05-22T00:42:57;100113.09;;;18.11;73.99
53868;BME280;41577;47.470;19.080;2023-05-22T00:43:11;100122.09;;;18.17;74.00
53868;BME280;41577;47.470;19.080;2023-05-22T00:43:23;100116.13;;;18.15;73.89
53868;BME280;41577;47.470;19.080;2023-05-22T00:43:37;100126.47;;;18.18;74.14
53868;BME280;41577;47.470;19.080;2023-05-22T00:43:50;100130.22;;;18.17;74.07
53868;BME280;41577;47.470;19.080;2023-05-22T00:44:04;100111.22;;;18.12;74.15
53868;BME280;41577;47.470;19.080;2023-05-22T00:44:16;100119.09;;;18.13;74.04
53868;BME280;41577;47.470;19.080;2023-05-22T00:44:30;100122.09;;;18.17;74.04
53868;BME280;41577;47.470;19.080;2023-05-22T00:44:43;100126.94;;;18.15;74.24
53868;BME280;41577;47.470;19.080;2023-05-22T00:44:56;100123.19;;;18.16;73.91
53868;BME280;41577;47.470;19.080;2023-05-22T00:45:10;100125.91;;;18.16;74.10
53868;BME280;41577;47.470;19.080;2023-05-22T00:45:23;100118.00;;;18.14;73.98
53868;BME280;41577;47.470;19.080;2023-05-22T00:45:36;100128.59;;;18.16;74.20
53868;BME280;41577;47.470;19.080;2023-05-22T00:45:48;100119.66;;;18.15;74.02
53868;BME280;41577;47.470;19.080;2023-05-22T00:46:01;100115.53;;;18.13;74.46
53868;BME280;41577;47.470;19.080;2023-05-22T00:46:13;100114.16;;;18.10;74.37
53868;BME280;41577;47.470;19.080;2023-05-22T00:46:25;100116.03;;;18.10;73.95
53868;BME280;41577;47.470;19.080;2023-05-22T00:46:38;100119.09;;;18.13;74.33
53868;BME280;41577;47.470;19.080;2023-05-22T00:46:50;100127.78;;;18.15;74.25
53868;BME280;41577;47.470;19.080;2023-05-22T00:47:04;100115.22;;;18.09;74.61
53868;BME280;41577;47.470;19.080;2023-05-22T00:47:16;100119.31;;;18.12;74.12
53868;BME280;41577;47.470;19.080;2023-05-22T00:47:29;100121.69;;;18.08;74.25
53868;BME280;41577;47.470;19.080;2023-05-22T00:47:41;100118.00;;;18.14;74.10
53868;BME280;41577;47.470;19.080;2023-05-22T00:47:55;100123.66;;;18.13;74.27
53868;BME280;41577;47.470;19.080;2023-05-22T00:48:07;100134.22;;;18.14;73.96
53868;BME280;41577;47.470;19.080;2023-05-22T00:48:20;100129.31;;;18.11;74.23
53868;BME280;41577;47.470;19.080;2023-05-22T00:48:32;100127.19;;;18.13;73.99
53868;BME280;41577;47.470;19.080;2023-05-22T00:48:46;100123.06;;;18.11;74.27
53868;BME280;41577;47.470;19.080;2023-05-22T00:48:59;100126.34;;;18.13;74.25
53868;BME280;41577;47.470;19.080;2023-05-22T00:49:12;100131.75;;;18.13;74.21
53868;BME280;41577;47.470;19.080;2023-05-22T00:49:24;100130.13;;;18.12;74.13
53868;BME280;41577;47.470;19.080;2023-05-22T00:49:37;100129.06;;;18.13;74.37
53868;BME280;41577;47.470;19.080;2023-05-22T00:49:50;100128.47;;;18.11;74.16
53868;BME280;41577;47.470;19.080;2023-05-22T00:50:04;100133.66;;;18.12;74.26
53868;BME280;41577;47.470;19.080;2023-05-22T00:50:19;100121.09;;;18.06;74.20
53868;BME280;41577;47.470;19.080;2023-05-22T00:50:32;100128.25;;;18.12;74.22
53868;BME280;41577;47.470;19.080;2023-05-22T00:50:44;100128.25;;;18.12;74.45
53868;BME280;41577;47.470;19.080;2023-05-22T00:51:00;100136.34;;;18.12;74.27
53868;BME280;41577;47.470;19.080;2023-05-22T00:51:13;100129.91;;;18.13;74.10
53868;BME280;41577;47.470;19.080;2023-05-22T00:51:26;100122.75;;;18.07;74.45
53868;BME280;41577;47.470;19.080;2023-05-22T00:51:39;100113.84;;;18.07;74.29
53868;BME280;41577;47.470;19.080;2023-05-22T00:51:52;100130.13;;;18.12;74.15
53868;BME280;41577;47.470;19.080;2023-05-22T00:52:05;100121.22;;;18.11;74.38
53868;BME280;41577;47.470;19.080;2023-05-22T00:52:18;100130.94;;;18.12;74.48
53868;BME280;41577;47.470;19.080;2023-05-22T00:52:32;100126.50;;;18.06;74.47
53868;BME280;41577;47.470;19.080;2023-05-22T00:52:50;100132.84;;;18.12;74.24
53868;BME280;41577;47.470;19.080;2023-05-22T00:53:03;100126.84;;;18.10;74.31
53868;BME280;41577;47.470;19.080;2023-05-22T00:53:16;100134.72;;;18.11;74.35
53868;BME280;41577;47.470;19.080;2023-05-22T00:53:33;100126.63;;;18.11;74.28
53868;BME280;41577;47.470;19.080;2023-05-22T00:53:47;100126.63;;;18.11;74.33
53868;BME280;41577;47.470;19.080;2023-05-22T00:53:59;100120.06;;;18.07;74.18
53868;BME280;41577;47.470;19.080;2023-05-22T00:54:12;100118.66;;;18.05;74.51
53868;BME280;41577;47.470;19.080;2023-05-22T00:54:26;100129.31;;;18.11;74.42
53868;BME280;41577;47.470;19.080;2023-05-22T00:54:39;100119.47;;;18.05;74.31
53868;BME280;41577;47.470;19.080;2023-05-22T00:54:52;100132.03;;;18.11;74.49
53868;BME280;41577;47.470;19.080;2023-05-22T00:55:06;100130.38;;;18.10;74.45
53868;BME280;41577;47.470;19.080;2023-05-22T00:55:19;100122.53;;;18.09;74.32
53868;BME280;41577;47.470;19.080;2023-05-22T00:55:32;100113.72;;;18.02;74.25
53868;BME280;41577;47.470;19.080;2023-05-22T00:55:45;100127.44;;;18.12;74.68
53868;BME280;41577;47.470;19.080;2023-05-22T00:55:57;100121.69;;;18.08;74.17
53868;BME280;41577;47.470;19.080;2023-05-22T00:56:10;100120.06;;;18.07;74.05
53868;BME280;41577;47.470;19.080;2023-05-22T00:56:25;100124.72;;;18.12;73.62
53868;BME280;41577;47.470;19.080;2023-05-22T00:56:38;100114.72;;;18.12;73.90
53868;BME280;41577;47.470;19.080;2023-05-22T00:56:52;100126.94;;;18.15;73.65
53868;BME280;41577;47.470;19.080;2023-05-22T00:57:05;100118.50;;;18.11;73.15
53868;BME280;41577;47.470;19.080;2023-05-22T00:57:19;100116.97;;;18.15;73.61
53868;BME280;41577;47.470;19.080;2023-05-22T00:57:32;100125.06;;;18.15;73.31
53868;BME280;41577;47.470;19.080;2023-05-22T00:57:46;100122.09;;;18.17;73.57
53868;BME280;41577;47.470;19.080;2023-05-22T00:57:59;100119.66;;;18.15;73.39
53868;BME280;41577;47.470;19.080;2023-05-22T00:58:15;100110.13;;;18.13;73.05
53868;BME280;41577;47.470;19.080;2023-05-22T00:58:28;100115.66;;;18.18;73.10
53868;BME280;41577;47.470;19.080;2023-05-22T00:58:43;100114.00;;;18.17;73.33
53868;BME280;41577;47.470;19.080;2023-05-22T00:58:57;100118.00;;;18.14;72.99
53868;BME280;41577;47.470;19.080;2023-05-22T00:59:10;100118.38;;;18.18;72.99
53868;BME280;41577;47.470;19.080;2023-05-22T00:59:23;100111.31;;;18.17;72.91
53868;BME280;41577;47.470;19.080;2023-05-22T00:59:36;100105.31;;;18.15;72.76
53868;BME280;41577;47.470;19.080;2023-05-22T00:59:49;100115.31;;;18.14;72.67
53868;BME280;41577;47.470;19.080;2023-05-22T01:00:02;100116.69;;;18.17;72.79
53868;BME280;41577;47.470;19.080;2023-05-22T01:00:16;100111.66;;;18.21;72.53
53868;BME280;41577;47.470;19.080;2023-05-22T01:00:29;100116.25;;;18.20;72.67
53868;BME280;41577;47.470;19.080;2023-05-22T01:00:43;100118.94;;;18.20;72.95
53868;BME280;41577;47.470;19.080;2023-05-22T01:00:56;100112.47;;;18.21;72.74
53868;BME280;41577;47.470;19.080;2023-05-22T01:01:09;100109.19;;;18.19;72.75
53868;BME280;41577;47.470;19.080;2023-05-22T01:01:22;100104.25;;;18.16;72.58
53868;BME280;41577;47.470;19.080;2023-05-22T01:01:36;100113.28;;;18.22;72.71
53868;BME280;41577;47.470;19.080;2023-05-22T01:01:48;100119.50;;;18.22;72.48
53868;BME280;41577;47.470;19.080;2023-05-22T01:02:01;100113.53;;;18.20;72.50
53868;BME280;41577;47.470;19.080;2023-05-22T01:02:14;100116.25;;;18.20;72.62
53868;BME280;41577;47.470;19.080;2023-05-22T01:02:28;100117.88;;;18.21;72.29
53868;BME280;41577;47.470;19.080;2023-05-22T01:02:41;100117.88;;;18.21;72.73
53868;BME280;41577;47.470;19.080;2023-05-22T01:02:54;100111.06;;;18.18;72.75
53868;BME280;41577;47.470;19.080;2023-05-22T01:03:06;100115.97;;;18.22;72.71
53868;BME280;41577;47.470;19.080;2023-05-22T01:03:20;100117.06;;;18.21;72.75
53868;BME280;41577;47.470;19.080;2023-05-22T01:03:34;100121.38;;;18.22;72.84
53868;BME280;41577;47.470;19.080;2023-05-22T01:03:49;100112.38;;;18.16;72.74
53868;BME280;41577;47.470;19.080;2023-05-22T01:04:04;100117.19;;;18.14;72.92
53868;BME280;41577;47.470;19.080;2023-05-22T01:04:20;100129.75;;;18.20;72.95
53868;BME280;41577;47.470;19.080;2023-05-22T01:04:32;100112.03;;;18.12;72.93
53868;BME280;41577;47.470;19.080;2023-05-22T01:04:46;100123.78;;;18.18;72.87
53868;BME280;41577;47.470;19.080;2023-05-22T01:04:59;100112.03;;;18.12;73.04
53868;BME280;41577;47.470;19.080;2023-05-22T01:05:12;100121.31;;;18.16;73.10
53868;BME280;41577;47.470;19.080;2023-05-22T01:05:25;100118.81;;;18.15;73.23
53868;BME280;41577;47.470;19.080;2023-05-22T01:05:38;100119.66;;;18.15;73.10
53868;BME280;41577;47.470;19.080;2023-05-22T01:05:57;100117.19;;;18.14;73.28
53868;BME280;41577;47.470;19.080;2023-05-22T01:06:11;100126.94;;;18.15;73.44
53868;BME280;41577;47.470;19.080;2023-05-22T01:06:24;100120.13;;;18.12;73.43
53868;BME280;41577;47.470;19.080;2023-05-22T01:06:36;100119.31;;;18.12;73.28
53868;BME280;41577;47.470;19.080;2023-05-22T01:06:49;100115.69;;;18.06;73.42
53868;BME280;41577;47.470;19.080;2023-05-22T01:07:02;100111.59;;;18.04;73.21
53868;BME280;41577;47.470;19.080;2023-05-22T01:07:15;100120.63;;;18.09;73.61
53868;BME280;41577;47.470;19.080;2023-05-22T01:07:28;100116.28;;;18.08;73.40
53868;BME280;41577;47.470;19.080;2023-05-22T01:07:43;100114.66;;;18.07;73.33
53868;BME280;41577;47.470;19.080;2023-05-22T01:07:56;100118.16;;;18.08;73.48
53868;BME280;41577;47.470;19.080;2023-05-22T01:08:08;100117.13;;;18.09;73.39
53868;BME280;41577;47.470;19.080;2023-05-22T01:08:21;100113.56;;;18.08;73.50
53868;BME280;41577;47.470;19.080;2023-05-22T01:08:34;100115.47;;;18.08;73.46
53868;BME280;41577;47.470;19.080;2023-05-22T01:08:49;100112.75;;;18.08;73.44
53868;BME280;41577;47.470;19.080;2023-05-22T01:09:04;100111.94;;;18.07;73.46